createdAt,value
2017-08-03T00:02:03.935Z,65.60
2017-08-03T00:04:32.783Z,65.00
2017-08-03T00:07:00.891Z,64.90
2017-08-03T00:09:28.975Z,65.50
2017-08-03T00:11:57.052Z,64.80
2017-08-03T00:14:25.915Z,65.40
2017-08-03T00:16:53.995Z,65.40
2017-08-03T00:19:22.095Z,66.20
2017-08-03T00:21:50.174Z,67.20
2017-08-03T00:24:18.292Z,67.00
2017-08-03T00:26:46.467Z,67.60
2017-08-03T00:29:14.644Z,66.80
2017-08-03T00:31:42.756Z,65.70
2017-08-03T00:34:10.887Z,66.10
2017-08-03T00:36:39.059Z,66.00
2017-08-03T00:39:07.235Z,66.40
2017-08-03T00:41:35.413Z,66.50
2017-08-03T00:44:03.583Z,66.90
2017-08-03T00:46:31.759Z,67.40
2017-08-03T00:49:00.736Z,67.60
2017-08-03T00:51:28.820Z,68.40
2017-08-03T00:53:56.900Z,69.10
2017-08-03T00:56:25.071Z,68.80
2017-08-03T00:58:53.243Z,69.20
2017-08-03T01:01:21.343Z,69.70
2017-08-03T01:03:50.215Z,68.90
2017-08-03T01:06:18.295Z,68.70
2017-08-03T01:08:46.379Z,68.90
2017-08-03T01:11:15.239Z,65.80
2017-08-03T01:13:43.323Z,65.80
2017-08-03T01:16:11.417Z,66.00
2017-08-03T01:18:40.283Z,66.00
2017-08-03T01:21:08.374Z,66.00
2017-08-03T01:23:37.219Z,65.90
2017-08-03T01:26:05.324Z,65.90
2017-08-03T01:28:33.406Z,65.50
2017-08-03T01:31:01.483Z,65.40
2017-08-03T01:33:30.354Z,67.40
2017-08-03T01:35:58.430Z,65.70
2017-08-03T01:40:55.886Z,65.90
2017-08-03T01:43:24.723Z,66.40
2017-08-03T01:45:53.575Z,65.60
2017-08-03T01:48:22.066Z,65.70
2017-08-03T01:50:50.147Z,65.80
2017-08-03T01:53:18.226Z,65.80
2017-08-03T01:55:47.087Z,66.30
2017-08-03T01:58:15.558Z,66.40
2017-08-03T02:00:43.670Z,67.10
2017-08-03T02:03:12.511Z,67.50
2017-08-03T02:05:40.587Z,67.10
2017-08-03T02:08:08.690Z,67.20
2017-08-03T02:10:37.554Z,68.80
2017-08-03T02:13:05.624Z,68.10
2017-08-03T02:15:33.723Z,68.10
2017-08-03T02:18:01.818Z,68.90
2017-08-03T02:20:30.315Z,68.80
2017-08-03T02:22:58.410Z,68.80
2017-08-03T02:25:26.506Z,68.80
2017-08-03T02:27:54.591Z,68.90
2017-08-03T02:30:23.096Z,69.50
2017-08-03T02:32:51.568Z,68.70
2017-08-03T02:35:19.638Z,68.80
2017-08-03T02:37:47.748Z,68.90
2017-08-03T02:40:15.819Z,68.60
2017-08-03T02:42:43.915Z,69.10
2017-08-03T02:45:11.990Z,68.10
2017-08-03T02:47:40.082Z,67.90
2017-08-03T02:50:09.688Z,68.70
2017-08-03T02:52:37.862Z,68.10
2017-08-03T02:55:06.030Z,68.70
2017-08-03T02:57:34.102Z,68.70
2017-08-03T03:00:02.279Z,69.50
2017-08-03T03:02:30.450Z,69.60
2017-08-03T03:04:59.342Z,69.40
2017-08-03T03:07:27.439Z,69.00
2017-08-03T03:09:55.510Z,69.00
2017-08-03T03:12:23.606Z,68.70
2017-08-03T03:14:51.682Z,68.90
2017-08-03T03:17:19.787Z,69.20
2017-08-03T03:19:48.258Z,70.00
2017-08-03T03:22:16.335Z,70.30
2017-08-03T03:24:44.430Z,70.60
2017-08-03T03:27:12.505Z,70.90
2017-08-03T03:29:41.483Z,72.10
2017-08-03T03:32:09.518Z,72.60
2017-08-03T03:34:38.051Z,73.50
2017-08-03T03:37:06.227Z,74.10
2017-08-03T03:39:34.340Z,74.20
2017-08-03T03:42:03.187Z,74.60
2017-08-03T03:44:31.263Z,73.70
2017-08-03T03:46:59.396Z,72.40
2017-08-03T03:49:27.479Z,73.20
2017-08-03T03:51:55.550Z,73.80
2017-08-03T03:54:23.651Z,74.10
2017-08-03T03:56:51.755Z,74.50
2017-08-03T03:59:20.249Z,74.70
2017-08-03T04:01:49.086Z,75.60
2017-08-03T04:04:17.178Z,75.10
2017-08-03T04:06:45.275Z,76.00
2017-08-03T04:09:14.122Z,75.70
2017-08-03T04:11:42.223Z,75.10
2017-08-03T04:14:10.703Z,74.80
2017-08-03T04:16:38.798Z,75.80
2017-08-03T04:19:06.874Z,75.60
2017-08-03T04:21:35.366Z,75.30
2017-08-03T04:24:03.872Z,75.40
2017-08-03T04:26:31.947Z,75.60
2017-08-03T04:29:00.023Z,76.10
2017-08-03T04:31:28.124Z,75.90
2017-08-03T04:33:56.205Z,76.50
2017-08-03T04:36:25.071Z,76.10
2017-08-03T04:38:53.201Z,75.60
2017-08-03T04:41:21.287Z,75.40
2017-08-03T04:43:49.400Z,75.30
2017-08-03T04:46:17.470Z,75.90
2017-08-03T04:48:45.547Z,75.40
2017-08-03T04:51:14.147Z,75.80
2017-08-03T04:53:43.022Z,77.50
2017-08-03T04:56:11.099Z,75.70
2017-08-03T04:58:39.175Z,75.10
2017-08-03T05:01:07.678Z,73.70
2017-08-03T05:03:36.510Z,73.50
2017-08-03T05:06:04.618Z,70.80
2017-08-03T05:08:32.703Z,70.50
2017-08-03T05:11:01.551Z,70.30
2017-08-03T05:13:29.665Z,69.20
2017-08-03T05:15:58.510Z,69.60
2017-08-03T05:18:26.591Z,69.40
2017-08-03T05:20:54.702Z,69.10
2017-08-03T05:23:23.546Z,70.00
2017-08-03T05:25:51.726Z,69.80
2017-08-03T05:28:19.822Z,69.50
2017-08-03T05:30:47.938Z,69.10
2017-08-03T05:33:16.020Z,69.40
2017-08-03T05:35:44.485Z,70.10
2017-08-03T05:38:12.595Z,69.40
2017-08-03T05:40:40.670Z,68.80
2017-08-03T05:43:08.746Z,69.50
2017-08-03T05:45:37.246Z,70.10
2017-08-03T05:48:05.723Z,70.50
2017-08-03T05:50:33.803Z,71.20
2017-08-03T05:53:01.899Z,70.20
2017-08-03T05:55:30.008Z,70.80
2017-08-03T05:57:58.115Z,70.70
2017-08-03T06:00:26.202Z,71.30
2017-08-03T06:02:55.094Z,71.00
2017-08-03T06:05:23.172Z,70.40
2017-08-03T06:07:52.010Z,71.00
2017-08-03T06:10:20.891Z,72.90
2017-08-03T06:12:48.977Z,73.00
2017-08-03T06:15:17.050Z,73.50
2017-08-03T06:17:45.146Z,74.80
2017-08-03T06:20:13.642Z,74.50
2017-08-03T06:22:42.506Z,75.30
2017-08-03T06:25:10.587Z,73.70
2017-08-03T06:27:38.685Z,74.20
2017-08-03T06:30:07.550Z,72.60
2017-08-03T06:32:35.638Z,71.70
2017-08-03T06:35:04.525Z,71.30
2017-08-03T06:37:32.606Z,70.90
2017-08-03T06:40:01.447Z,71.10
2017-08-03T06:42:29.572Z,70.80
2017-08-03T06:44:58.423Z,71.70
2017-08-03T06:47:26.511Z,70.90
2017-08-03T06:49:54.627Z,71.30
2017-08-03T06:52:22.707Z,71.80
2017-08-03T06:54:50.829Z,72.50
2017-08-03T06:57:18.915Z,73.00
2017-08-03T06:59:47.762Z,72.60
2017-08-03T07:02:15.876Z,73.90
2017-08-03T07:04:44.725Z,75.00
2017-08-03T07:07:12.871Z,75.20
2017-08-03T07:09:40.954Z,75.50
2017-08-03T07:12:09.080Z,74.90
2017-08-03T07:14:37.935Z,75.70
2017-08-03T07:17:06.043Z,75.60
2017-08-03T07:19:34.146Z,75.00
2017-08-03T07:22:02.661Z,74.20
2017-08-03T07:24:30.775Z,74.60
2017-08-03T07:26:59.646Z,74.90
2017-08-03T07:29:28.619Z,74.30
2017-08-03T07:31:56.671Z,74.00
2017-08-03T07:34:24.754Z,74.00
2017-08-03T07:36:52.872Z,73.90
2017-08-03T07:39:20.963Z,74.80
2017-08-03T07:41:49.486Z,74.70
2017-08-03T07:44:17.570Z,74.20
2017-08-03T07:46:46.094Z,73.70
2017-08-03T07:49:14.198Z,72.80
2017-08-03T07:51:42.268Z,73.80
2017-08-03T07:54:10.375Z,74.60
2017-08-03T07:56:38.857Z,75.50
2017-08-03T07:59:07.850Z,76.70
2017-08-03T08:01:36.728Z,78.60
2017-08-03T08:04:05.284Z,79.00
2017-08-03T08:06:33.752Z,79.20
2017-08-03T08:09:01.870Z,79.30
2017-08-03T08:11:30.745Z,80.20
2017-08-03T08:13:58.851Z,79.70
2017-08-03T08:16:27.698Z,80.60
2017-08-03T08:18:55.810Z,81.70
2017-08-03T08:21:24.791Z,83.10
2017-08-03T08:23:52.875Z,83.10
2017-08-03T08:26:21.727Z,82.90
2017-08-03T08:28:49.830Z,83.30
2017-08-03T08:31:18.731Z,86.10
2017-08-03T08:33:47.591Z,86.40
2017-08-03T08:36:15.678Z,85.30
2017-08-03T08:38:43.790Z,85.20
2017-08-03T08:41:12.444Z,85.20
2017-08-03T08:43:40.571Z,83.80
2017-08-03T08:46:08.659Z,83.50
2017-08-03T08:48:36.742Z,84.00
2017-08-03T08:51:04.855Z,83.00
2017-08-03T08:53:32.965Z,82.70
2017-08-03T08:56:01.079Z,82.80
2017-08-03T08:58:29.935Z,83.80
2017-08-03T09:00:58.062Z,83.30
2017-08-03T09:03:26.150Z,84.80
2017-08-03T09:05:54.239Z,83.60
2017-08-03T09:08:22.347Z,84.00
2017-08-03T09:10:50.515Z,84.60
2017-08-03T09:13:18.599Z,85.40
2017-08-03T09:15:47.079Z,84.90
2017-08-03T09:18:15.582Z,84.30
2017-08-03T09:20:43.714Z,84.90
2017-08-03T09:23:11.798Z,84.70
2017-08-03T09:25:39.893Z,84.60
2017-08-03T09:28:08.758Z,85.70
2017-08-03T09:30:36.855Z,85.00
2017-08-03T09:33:05.739Z,86.30
2017-08-03T09:35:34.590Z,86.50
2017-08-03T09:38:02.707Z,85.40
2017-08-03T09:40:31.575Z,85.20
2017-08-03T09:42:59.687Z,84.60
2017-08-03T09:45:27.790Z,84.10
2017-08-03T09:47:58.927Z,83.80
2017-08-03T09:50:27.034Z,84.10
2017-08-03T09:52:55.126Z,83.70
2017-08-03T09:55:23.602Z,83.50
2017-08-03T09:57:51.718Z,83.00
2017-08-03T10:00:19.816Z,82.20
2017-08-03T10:02:47.898Z,81.40
2017-08-03T10:05:16.010Z,81.90
2017-08-03T10:07:44.926Z,82.00
2017-08-03T10:10:13.007Z,81.10
2017-08-03T10:12:41.090Z,80.20
2017-08-03T10:15:09.201Z,80.80
2017-08-03T10:17:37.288Z,79.30
2017-08-03T10:20:06.169Z,79.00
2017-08-03T10:22:34.246Z,77.80
2017-08-03T10:25:02.736Z,76.30
2017-08-03T10:27:31.618Z,76.00
2017-08-03T10:30:00.503Z,74.90
2017-08-03T10:32:28.653Z,73.60
2017-08-03T10:34:56.727Z,72.10
2017-08-03T10:37:24.815Z,72.80
2017-08-03T10:39:52.926Z,71.50
2017-08-03T10:42:21.014Z,70.90
2017-08-03T10:44:49.110Z,70.80
2017-08-03T10:47:17.227Z,70.90
2017-08-03T10:49:45.763Z,70.70
2017-08-03T10:52:14.596Z,70.60
2017-08-03T10:54:43.484Z,70.60
2017-08-03T10:57:12.334Z,70.60
2017-08-03T10:59:40.427Z,69.60
2017-08-03T11:02:08.539Z,69.30
2017-08-03T11:04:37.010Z,68.60
2017-08-03T11:07:05.882Z,68.70
2017-08-03T11:09:33.976Z,68.50
2017-08-03T11:12:02.843Z,69.30
2017-08-03T11:14:31.351Z,68.00
2017-08-03T11:16:59.826Z,66.60
2017-08-03T11:19:28.706Z,66.40
2017-08-03T11:21:57.574Z,66.00
2017-08-03T11:24:26.050Z,63.70
2017-08-03T11:26:54.545Z,62.30
2017-08-03T11:29:22.634Z,59.90
2017-08-03T11:31:51.498Z,58.60
2017-08-03T11:34:19.603Z,56.40
2017-08-03T11:36:48.451Z,54.40
2017-08-03T11:39:16.553Z,54.50
2017-08-03T11:41:45.032Z,53.90
2017-08-03T11:44:13.142Z,54.30
2017-08-03T11:46:41.979Z,53.60
2017-08-03T11:49:10.074Z,51.70
2017-08-03T11:51:38.143Z,52.10
2017-08-03T11:54:06.247Z,51.00
2017-08-03T11:56:34.341Z,50.30
2017-08-03T11:59:02.476Z,50.60
2017-08-03T12:01:30.927Z,51.20
2017-08-03T12:03:59.039Z,51.80
2017-08-03T12:06:27.115Z,46.50
2017-08-03T12:08:55.199Z,47.30
2017-08-03T12:11:23.307Z,35.20
2017-08-03T12:13:51.382Z,32.20
2017-08-03T12:16:19.458Z,30.50
2017-08-03T12:18:47.562Z,30.00
2017-08-03T12:21:16.440Z,29.80
2017-08-03T12:23:44.508Z,28.50
2017-08-03T12:26:12.579Z,26.50
2017-08-03T12:28:41.070Z,26.50
2017-08-03T12:31:09.942Z,27.70
2017-08-03T12:33:38.018Z,27.30
2017-08-03T12:36:06.090Z,26.90
2017-08-03T12:38:34.198Z,27.10
2017-08-03T12:41:02.273Z,25.10
2017-08-03T12:43:30.347Z,24.30
2017-08-03T12:45:58.450Z,23.20
2017-08-03T12:48:26.527Z,22.70
2017-08-03T12:50:54.627Z,22.80
2017-08-03T12:53:22.731Z,22.80
2017-08-03T12:55:50.811Z,22.90
2017-08-03T12:58:18.906Z,22.20
2017-08-03T13:00:47.006Z,21.20
2017-08-03T13:03:15.850Z,20.40
2017-08-03T13:05:44.356Z,20.70
2017-08-03T13:08:12.450Z,20.80
2017-08-03T13:10:40.567Z,20.90
2017-08-03T13:13:08.639Z,20.70
2017-08-03T13:15:36.718Z,20.90
2017-08-03T13:18:04.822Z,21.50
2017-08-03T13:20:32.894Z,21.40
2017-08-03T13:23:00.996Z,21.30
2017-08-03T13:25:29.138Z,21.60
2017-08-03T13:27:57.979Z,21.20
2017-08-03T13:30:26.818Z,21.00
2017-08-03T13:32:54.923Z,20.00
2017-08-03T13:35:23.005Z,19.60
2017-08-03T13:37:51.142Z,20.30
2017-08-03T13:40:19.218Z,20.70
2017-08-03T13:42:47.687Z,21.70
2017-08-03T13:45:15.787Z,22.00
2017-08-03T13:47:43.870Z,21.90
2017-08-03T13:50:11.979Z,22.20
2017-08-03T13:52:40.054Z,22.70
2017-08-03T13:55:08.563Z,23.00
2017-08-03T13:57:36.642Z,22.50
2017-08-03T14:00:04.739Z,21.70
2017-08-03T14:02:32.838Z,22.00
2017-08-03T14:05:00.914Z,22.60
2017-08-03T14:07:29.019Z,23.30
2017-08-03T14:09:57.090Z,23.90
2017-08-03T14:12:25.599Z,24.00
2017-08-03T14:14:53.673Z,23.90
2017-08-03T14:17:21.750Z,24.70
2017-08-03T14:19:49.871Z,25.00
2017-08-03T14:22:17.946Z,26.70
2017-08-03T14:24:46.026Z,27.50
2017-08-03T14:27:14.991Z,28.40
2017-08-03T14:29:43.079Z,28.00
2017-08-03T14:32:11.164Z,27.80
2017-08-03T14:34:39.302Z,27.70
2017-08-03T14:37:08.168Z,28.00
2017-08-03T14:39:36.238Z,28.00
2017-08-03T14:42:04.346Z,28.50
2017-08-03T14:44:32.452Z,28.10
2017-08-03T14:47:00.516Z,27.30
2017-08-03T14:49:29.373Z,28.10
2017-08-03T14:51:57.856Z,29.00
2017-08-03T14:54:26.726Z,28.40
2017-08-03T14:56:55.199Z,26.50
2017-08-03T14:59:23.670Z,25.90
2017-08-03T15:01:51.780Z,26.20
2017-08-03T15:04:19.854Z,28.70
2017-08-03T15:06:47.967Z,29.90
2017-08-03T15:09:16.439Z,30.90
2017-08-03T15:11:44.521Z,31.10
2017-08-03T15:14:12.620Z,31.60
2017-08-03T15:16:42.108Z,31.90
2017-08-03T15:19:10.599Z,32.50
2017-08-03T15:21:38.674Z,31.50
2017-08-03T15:24:06.770Z,31.30
2017-08-03T15:26:35.614Z,31.50
2017-08-03T15:29:03.715Z,31.80
2017-08-03T15:31:31.799Z,31.50
2017-08-03T15:33:59.903Z,32.90
2017-08-03T15:36:27.978Z,31.80
2017-08-03T15:38:56.061Z,31.40
2017-08-03T15:41:24.163Z,31.40
2017-08-03T15:43:52.630Z,32.10
2017-08-03T15:46:20.701Z,31.60
2017-08-03T15:48:48.798Z,32.60
2017-08-03T15:51:16.907Z,31.00
2017-08-03T15:53:45.742Z,31.20
2017-08-03T15:56:14.215Z,32.40
2017-08-03T15:58:42.714Z,33.10
2017-08-03T16:01:10.791Z,31.60
2017-08-03T16:03:38.863Z,33.30
2017-08-03T16:06:06.972Z,34.10
2017-08-03T16:08:35.810Z,35.10
2017-08-03T16:11:03.907Z,35.40
2017-08-03T16:13:32.013Z,35.90
2017-08-03T16:16:00.846Z,37.00
2017-08-03T16:18:28.919Z,36.90
2017-08-03T16:20:57.779Z,37.00
2017-08-03T16:23:25.854Z,36.80
2017-08-03T16:25:53.963Z,36.60
2017-08-03T16:28:22.033Z,35.30
2017-08-03T16:30:50.119Z,34.50
2017-08-03T16:33:18.222Z,33.70
2017-08-03T16:35:47.067Z,34.00
2017-08-03T16:38:15.549Z,34.10
2017-08-03T16:40:43.655Z,33.40
2017-08-03T16:43:12.495Z,34.00
2017-08-03T16:45:40.571Z,32.90
2017-08-03T16:48:08.666Z,33.20
2017-08-03T16:50:36.746Z,33.20
2017-08-03T16:53:04.859Z,33.30
2017-08-03T16:55:32.938Z,33.10
2017-08-03T16:58:01.010Z,34.10
2017-08-03T17:00:29.114Z,35.00
2017-08-03T17:02:57.195Z,36.30
2017-08-03T17:05:25.659Z,36.50
2017-08-03T17:07:53.766Z,37.40
2017-08-03T17:10:21.843Z,37.30
2017-08-03T17:12:49.926Z,37.10
2017-08-03T17:15:18.804Z,35.60
2017-08-03T17:17:47.275Z,36.70
2017-08-03T17:20:16.114Z,35.90
2017-08-03T17:22:44.650Z,36.20
2017-08-03T17:25:12.726Z,36.00
2017-08-03T17:27:40.812Z,35.90
2017-08-03T17:30:08.920Z,36.30
2017-08-03T17:32:36.987Z,36.70
2017-08-03T17:35:05.833Z,36.70
2017-08-03T17:37:33.926Z,36.90
2017-08-03T17:40:02.774Z,37.50
2017-08-03T17:42:30.878Z,36.30
2017-08-03T17:44:59.356Z,36.00
2017-08-03T17:47:27.423Z,36.10
2017-08-03T17:49:55.539Z,35.20
2017-08-03T17:52:23.618Z,34.40
2017-08-03T17:54:51.740Z,34.70
2017-08-03T17:57:19.805Z,34.40
2017-08-03T17:59:47.879Z,35.00
2017-08-03T18:02:15.980Z,34.40
2017-08-03T18:04:44.818Z,35.50
2017-08-03T18:07:13.688Z,35.20
2017-08-03T18:09:42.188Z,35.20
2017-08-03T18:12:10.664Z,35.90
2017-08-03T18:14:38.758Z,36.10
2017-08-03T18:17:06.848Z,36.40
2017-08-03T18:19:35.339Z,36.60
2017-08-03T18:22:04.212Z,37.50
2017-08-03T18:24:32.692Z,38.10
2017-08-03T18:27:00.807Z,37.60
2017-08-03T18:29:29.278Z,37.90
2017-08-03T18:31:57.364Z,38.40
2017-08-03T18:34:25.858Z,38.20
2017-08-03T18:36:54.698Z,39.20
2017-08-03T18:39:22.798Z,38.80
2017-08-03T18:41:51.324Z,38.70
2017-08-03T18:44:19.489Z,39.50
2017-08-03T18:46:48.324Z,39.50
2017-08-03T18:49:17.195Z,41.40
2017-08-03T18:51:45.271Z,40.60
2017-08-03T18:54:13.383Z,40.30
2017-08-03T18:56:42.217Z,41.60
2017-08-03T18:59:10.715Z,41.40
2017-08-03T19:01:38.796Z,41.60
2017-08-03T19:04:06.900Z,41.70
2017-08-03T19:06:35.367Z,41.80
2017-08-03T19:09:04.263Z,42.40
2017-08-03T19:11:33.130Z,42.80
2017-08-03T19:14:01.202Z,42.30
2017-08-03T19:16:29.311Z,42.60
2017-08-03T19:18:57.788Z,42.90
2017-08-03T19:21:26.645Z,43.00
2017-08-03T19:23:55.233Z,43.40
2017-08-03T19:26:23.320Z,42.40
2017-08-03T19:28:51.808Z,42.90
2017-08-03T19:31:19.883Z,43.80
2017-08-03T19:33:48.000Z,43.30
2017-08-03T19:36:16.070Z,43.20
2017-08-03T19:38:44.149Z,43.50
2017-08-03T19:41:12.242Z,43.00
2017-08-03T19:43:40.323Z,43.40
2017-08-03T19:46:08.434Z,43.80
2017-08-03T19:48:36.527Z,43.80
2017-08-03T19:51:04.603Z,44.20
2017-08-03T19:53:32.712Z,43.30
2017-08-03T19:56:00.803Z,43.80
2017-08-03T19:58:29.646Z,44.60
2017-08-03T20:00:58.530Z,44.40
2017-08-03T20:03:26.612Z,44.20
2017-08-03T20:05:55.989Z,43.90
2017-08-03T20:08:42.802Z,43.70
2017-08-03T20:11:15.771Z,44.00
2017-08-03T20:13:43.843Z,44.60
2017-08-03T20:16:11.949Z,44.50
2017-08-03T20:18:40.031Z,44.60
2017-08-03T20:21:08.106Z,44.70
2017-08-03T20:23:36.237Z,44.70
2017-08-03T20:26:04.330Z,44.60
2017-08-03T20:28:32.442Z,45.40
2017-08-03T20:31:00.543Z,44.60
2017-08-03T20:33:29.015Z,45.10
2017-08-03T20:35:57.902Z,45.90
2017-08-03T20:38:26.759Z,46.00
2017-08-03T20:40:54.834Z,46.00
2017-08-03T20:43:23.703Z,46.70
2017-08-03T20:45:51.777Z,45.70
2017-08-03T20:51:18.030Z,46.50
2017-08-03T20:53:46.140Z,47.10
2017-08-03T20:56:14.607Z,47.00
2017-08-03T20:58:42.706Z,47.00
2017-08-03T21:01:11.556Z,47.50
2017-08-03T21:03:39.671Z,47.00
2017-08-03T21:06:08.523Z,47.20
2017-08-03T21:08:36.662Z,47.30
2017-08-03T21:11:04.763Z,47.50
2017-08-03T21:13:32.866Z,47.70
2017-08-03T21:16:01.358Z,47.40
2017-08-03T21:18:30.203Z,48.10
2017-08-03T21:20:58.318Z,48.00
2017-08-03T21:23:26.420Z,48.80
2017-08-03T21:25:54.518Z,49.20
2017-08-03T21:28:22.627Z,50.10
2017-08-03T21:30:50.712Z,51.20
2017-08-03T21:33:19.578Z,52.20
2017-08-03T21:35:47.663Z,52.10
2017-08-03T21:38:15.743Z,52.70
2017-08-03T21:40:44.627Z,53.00
2017-08-03T21:43:13.480Z,52.70
2017-08-03T21:45:41.554Z,52.70
2017-08-03T21:48:09.682Z,53.20
2017-08-03T21:50:37.809Z,54.20
2017-08-03T21:53:05.906Z,54.80
2017-08-03T21:55:33.983Z,54.80
2017-08-03T21:58:02.855Z,54.80
2017-08-03T22:00:42.694Z,54.80
2017-08-03T22:03:10.794Z,55.20
2017-08-03T22:05:39.644Z,56.00
2017-08-03T22:08:07.739Z,55.50
2017-08-03T22:10:35.848Z,55.70
2017-08-03T22:13:03.926Z,55.60
2017-08-03T22:15:32.440Z,55.50
2017-08-03T22:18:00.563Z,55.80
2017-08-03T22:20:29.436Z,56.00
2017-08-03T22:22:57.524Z,55.50
2017-08-03T22:25:26.401Z,56.10
2017-08-03T22:27:54.880Z,55.50
2017-08-03T22:30:22.954Z,55.70
2017-08-03T22:32:51.090Z,55.70
2017-08-03T22:35:19.163Z,55.80
2017-08-03T22:37:48.034Z,56.00
2017-08-03T22:40:16.117Z,56.50
2017-08-03T22:42:44.196Z,56.10
2017-08-03T22:45:12.295Z,56.50
2017-08-03T22:47:40.371Z,56.40
2017-08-03T22:50:08.466Z,56.70
2017-08-03T22:52:36.979Z,56.70
2017-08-03T22:55:05.822Z,57.00
2017-08-03T22:57:33.899Z,57.30
2017-08-03T23:00:02.019Z,57.50
2017-08-03T23:02:31.245Z,58.10
2017-08-03T23:04:59.331Z,58.40
2017-08-03T23:07:27.829Z,59.10
2017-08-03T23:09:56.319Z,59.00
2017-08-03T23:12:24.808Z,59.00
2017-08-03T23:17:22.263Z,59.70
2017-08-03T23:19:51.107Z,59.90
2017-08-03T23:22:20.728Z,60.20
2017-08-03T23:24:48.827Z,60.60
2017-08-03T23:27:16.929Z,60.60
2017-08-03T23:29:45.792Z,61.60
2017-08-03T23:32:13.871Z,61.60
2017-08-03T23:34:42.736Z,62.10
2017-08-03T23:37:10.856Z,62.10
2017-08-03T23:39:39.694Z,63.10
2017-08-03T23:42:07.809Z,62.50
2017-08-03T23:44:35.862Z,62.10
2017-08-03T23:47:03.987Z,61.80
2017-08-03T23:49:32.459Z,61.60
2017-08-03T23:52:00.536Z,62.60
2017-08-03T23:54:28.644Z,63.30
2017-08-03T23:56:57.112Z,63.70
2017-08-03T23:59:25.609Z,63.60
